sensor_id;sensor_type;location;lat;lon;timestamp;pressure;altitude;pressure_sealevel;temperature;humidity
62548;BME280;48602;45.192;5.722;2023-04-07T00:00:50;99320.63;;;10.65;38.91
62548;BME280;48602;45.192;5.722;2023-04-07T00:03:15;99318.91;;;10.64;39.84
62548;BME280;48602;45.192;5.722;2023-04-07T00:05:41;99322.44;;;10.63;39.45
62548;BME280;48602;45.192;5.722;2023-04-07T00:08:06;99325.13;;;10.61;39.63
62548;BME280;48602;45.192;5.722;2023-04-07T00:10:32;99318.19;;;10.59;39.77
62548;BME280;48602;45.192;5.722;2023-04-07T00:12:57;99324.53;;;10.55;40.03
62548;BME280;48602;45.192;5.722;2023-04-07T00:15:23;99324.69;;;10.50;39.80
62548;BME280;48602;45.192;5.722;2023-04-07T00:17:48;99321.34;;;10.45;40.55
62548;BME280;48602;45.192;5.722;2023-04-07T00:20:14;99325.84;;;10.41;40.58
62548;BME280;48602;45.192;5.722;2023-04-07T00:22:39;99321.59;;;10.39;40.93
62548;BME280;48602;45.192;5.722;2023-04-07T00:25:05;99310.34;;;10.34;41.27
62548;BME280;48602;45.192;5.722;2023-04-07T00:27:30;99308.72;;;10.30;41.42
62548;BME280;48602;45.192;5.722;2023-04-07T00:29:56;99306.19;;;10.27;41.08
62548;BME280;48602;45.192;5.722;2023-04-07T00:32:21;99311.56;;;10.24;41.27
62548;BME280;48602;45.192;5.722;2023-04-07T00:34:47;99305.53;;;10.22;41.14
62548;BME280;48602;45.192;5.722;2023-04-07T00:37:12;99303.00;;;10.19;41.37
62548;BME280;48602;45.192;5.722;2023-04-07T00:39:38;99296.00;;;10.16;41.24
62548;BME280;48602;45.192;5.722;2023-04-07T00:42:03;99289.94;;;10.14;41.35
62548;BME280;48602;45.192;5.722;2023-04-07T00:44:32;99282.13;;;10.11;41.51
62548;BME280;48602;45.192;5.722;2023-04-07T00:46:58;99275.16;;;10.10;41.73
62548;BME280;48602;45.192;5.722;2023-04-07T00:49:24;99269.22;;;10.05;41.97
62548;BME280;48602;45.192;5.722;2023-04-07T00:51:50;99260.50;;;10.03;41.88
62548;BME280;48602;45.192;5.722;2023-04-07T00:54:17;99257.06;;;10.01;42.06
62548;BME280;48602;45.192;5.722;2023-04-07T00:56:42;99257.19;;;9.96;42.03
62548;BME280;48602;45.192;5.722;2023-04-07T00:59:08;99260.91;;;9.91;41.67
62548;BME280;48602;45.192;5.722;2023-04-07T01:01:43;99262.81;;;9.87;42.40
62548;BME280;48602;45.192;5.722;2023-04-07T01:05:02;99268.28;;;9.81;42.34
62548;BME280;48602;45.192;5.722;2023-04-07T01:07:43;99274.59;;;9.75;42.17
62548;BME280;48602;45.192;5.722;2023-04-07T01:10:16;99273.00;;;9.71;42.83
62548;BME280;48602;45.192;5.722;2023-04-07T01:12:53;99267.91;;;9.67;42.73
62548;BME280;48602;45.192;5.722;2023-04-07T01:15:25;99276.81;;;9.63;42.80
62548;BME280;48602;45.192;5.722;2023-04-07T01:17:56;99269.00;;;9.60;42.72
62548;BME280;48602;45.192;5.722;2023-04-07T01:20:25;99267.38;;;9.56;42.89
62548;BME280;48602;45.192;5.722;2023-04-07T01:22:56;99274.50;;;9.54;42.75
62548;BME280;48602;45.192;5.722;2023-04-07T01:25:38;99271.97;;;9.51;43.35
62548;BME280;48602;45.192;5.722;2023-04-07T01:31:15;99274.88;;;9.41;43.76
62548;BME280;48602;45.192;5.722;2023-04-07T01:33:43;99270.56;;;9.39;44.19
62548;BME280;48602;45.192;5.722;2023-04-07T01:36:10;99271.56;;;9.36;44.13
62548;BME280;48602;45.192;5.722;2023-04-07T01:38:36;99274.25;;;9.35;43.93
62548;BME280;48602;45.192;5.722;2023-04-07T01:41:03;99281.31;;;9.33;43.92
62548;BME280;48602;45.192;5.722;2023-04-07T01:43:30;99289.25;;;9.31;43.75
62548;BME280;48602;45.192;5.722;2023-04-07T01:45:56;99275.28;;;9.29;43.59
62548;BME280;48602;45.192;5.722;2023-04-07T01:48:22;99268.31;;;9.28;43.87
62548;BME280;48602;45.192;5.722;2023-04-07T01:50:49;99272.69;;;9.28;44.16
62548;BME280;48602;45.192;5.722;2023-04-07T01:53:15;99274.56;;;9.24;45.77
62548;BME280;48602;45.192;5.722;2023-04-07T01:55:42;99278.22;;;9.20;44.63
62548;BME280;48602;45.192;5.722;2023-04-07T01:58:08;99275.91;;;9.09;44.81
62548;BME280;48602;45.192;5.722;2023-04-07T02:00:33;99270.91;;;9.02;44.89
62548;BME280;48602;45.192;5.722;2023-04-07T02:03:06;99271.97;;;8.96;44.86
62548;BME280;48602;45.192;5.722;2023-04-07T02:05:34;99267.75;;;8.91;44.77
62548;BME280;48602;45.192;5.722;2023-04-07T02:08:04;99274.88;;;8.87;45.36
62548;BME280;48602;45.192;5.722;2023-04-07T02:10:32;99272.47;;;8.80;45.23
62548;BME280;48602;45.192;5.722;2023-04-07T02:13:00;99274.38;;;8.74;45.57
62548;BME280;48602;45.192;5.722;2023-04-07T02:15:29;99268.28;;;8.72;45.61
62548;BME280;48602;45.192;5.722;2023-04-07T02:17:57;99271.09;;;8.68;45.67
62548;BME280;48602;45.192;5.722;2023-04-07T02:20:23;99271.22;;;8.63;45.75
62548;BME280;48602;45.192;5.722;2023-04-07T02:22:49;99273.03;;;8.61;46.17
62548;BME280;48602;45.192;5.722;2023-04-07T02:25:29;99271.44;;;8.56;45.80
62548;BME280;48602;45.192;5.722;2023-04-07T02:27:57;99268.88;;;8.54;45.99
62548;BME280;48602;45.192;5.722;2023-04-07T02:30:23;99260.13;;;8.54;45.82
62548;BME280;48602;45.192;5.722;2023-04-07T02:32:49;99253.94;;;8.55;46.29
62548;BME280;48602;45.192;5.722;2023-04-07T02:35:15;99253.03;;;8.56;46.00
62548;BME280;48602;45.192;5.722;2023-04-07T02:37:41;99267.09;;;8.55;45.59
62548;BME280;48602;45.192;5.722;2023-04-07T02:40:07;99261.91;;;8.53;45.49
62548;BME280;48602;45.192;5.722;2023-04-07T02:42:33;99268.06;;;8.52;45.92
62548;BME280;48602;45.192;5.722;2023-04-07T02:44:58;99272.41;;;8.53;45.81
62548;BME280;48602;45.192;5.722;2023-04-07T02:47:25;99263.72;;;8.51;45.75
62548;BME280;48602;45.192;5.722;2023-04-07T02:49:50;99261.03;;;8.53;45.74
62548;BME280;48602;45.192;5.722;2023-04-07T02:52:16;99257.59;;;8.51;45.78
62548;BME280;48602;45.192;5.722;2023-04-07T02:54:41;99259.41;;;8.49;46.01
62548;BME280;48602;45.192;5.722;2023-04-07T02:57:07;99255.91;;;8.48;46.00
62548;BME280;48602;45.192;5.722;2023-04-07T02:59:32;99239.31;;;8.46;46.14
62548;BME280;48602;45.192;5.722;2023-04-07T03:01:58;99239.31;;;8.46;46.14
62548;BME280;48602;45.192;5.722;2023-04-07T03:04:23;99242.84;;;8.45;46.40
62548;BME280;48602;45.192;5.722;2023-04-07T03:06:48;99231.44;;;8.46;46.64
62548;BME280;48602;45.192;5.722;2023-04-07T03:09:14;99234.06;;;8.46;46.80
62548;BME280;48602;45.192;5.722;2023-04-07T03:11:39;99231.50;;;8.45;46.93
62548;BME280;48602;45.192;5.722;2023-04-07T03:14:06;99231.44;;;8.46;46.92
62548;BME280;48602;45.192;5.722;2023-04-07T03:16:31;99223.59;;;8.45;47.16
62548;BME280;48602;45.192;5.722;2023-04-07T03:18:56;99222.72;;;8.46;47.01
62548;BME280;48602;45.192;5.722;2023-04-07T03:21:22;99217.50;;;8.44;47.07
62548;BME280;48602;45.192;5.722;2023-04-07T03:23:47;99214.88;;;8.44;47.35
62548;BME280;48602;45.192;5.722;2023-04-07T03:26:13;99218.34;;;8.45;47.42
62548;BME280;48602;45.192;5.722;2023-04-07T03:28:38;99223.59;;;8.45;47.58
62548;BME280;48602;45.192;5.722;2023-04-07T03:31:03;99217.50;;;8.44;47.15
62548;BME280;48602;45.192;5.722;2023-04-07T03:33:29;99219.31;;;8.42;47.51
62548;BME280;48602;45.192;5.722;2023-04-07T03:35:55;99214.03;;;8.42;47.48
62548;BME280;48602;45.192;5.722;2023-04-07T03:38:20;99210.56;;;8.42;47.94
62548;BME280;48602;45.192;5.722;2023-04-07T03:40:45;99210.59;;;8.40;46.91
62548;BME280;48602;45.192;5.722;2023-04-07T03:43:11;99208.94;;;8.37;46.68
62548;BME280;48602;45.192;5.722;2023-04-07T03:45:40;99206.38;;;8.36;46.71
62548;BME280;48602;45.192;5.722;2023-04-07T03:48:06;99198.53;;;8.34;46.39
62548;BME280;48602;45.192;5.722;2023-04-07T03:50:34;99202.97;;;8.31;46.38
62548;BME280;48602;45.192;5.722;2023-04-07T03:53:00;99199.53;;;8.29;46.49
62548;BME280;48602;45.192;5.722;2023-04-07T03:55:26;99199.53;;;8.29;46.52
62548;BME280;48602;45.192;5.722;2023-04-07T03:57:51;99200.44;;;8.28;46.62
62548;BME280;48602;45.192;5.722;2023-04-07T04:00:17;99199.53;;;8.29;46.88
62548;BME280;48602;45.192;5.722;2023-04-07T04:02:42;99196.94;;;8.27;46.90
62548;BME280;48602;45.192;5.722;2023-04-07T04:05:08;99196.09;;;8.27;46.71
62548;BME280;48602;45.192;5.722;2023-04-07T04:07:33;99202.19;;;8.27;46.82
62548;BME280;48602;45.192;5.722;2023-04-07T04:10:00;99195.19;;;8.28;46.76
62548;BME280;48602;45.192;5.722;2023-04-07T04:12:25;99185.50;;;8.30;46.83
62548;BME280;48602;45.192;5.722;2023-04-07T04:14:51;99188.06;;;8.33;46.78
62548;BME280;48602;45.192;5.722;2023-04-07T04:17:17;99177.56;;;8.33;46.97
62548;BME280;48602;45.192;5.722;2023-04-07T04:19:42;99182.72;;;8.36;47.24
62548;BME280;48602;45.192;5.722;2023-04-07T04:22:08;99179.19;;;8.37;47.40
62548;BME280;48602;45.192;5.722;2023-04-07T04:24:33;99182.72;;;8.36;47.33
62548;BME280;48602;45.192;5.722;2023-04-07T04:26:59;99187.06;;;8.37;47.29
62548;BME280;48602;45.192;5.722;2023-04-07T04:29:26;99200.97;;;8.40;47.60
62548;BME280;48602;45.192;5.722;2023-04-07T04:31:51;99189.53;;;8.42;47.60
62548;BME280;48602;45.192;5.722;2023-04-07T04:34:17;99194.75;;;8.43;47.09
62548;BME280;48602;45.192;5.722;2023-04-07T04:36:42;99197.34;;;8.45;47.35
62548;BME280;48602;45.192;5.722;2023-04-07T04:39:08;99201.78;;;8.43;47.81
62548;BME280;48602;45.192;5.722;2023-04-07T04:41:33;99189.75;;;8.35;47.53
62548;BME280;48602;45.192;5.722;2023-04-07T04:43:58;99194.22;;;8.32;47.51
62548;BME280;48602;45.192;5.722;2023-04-07T04:46:24;99189.88;;;8.29;47.70
62548;BME280;48602;45.192;5.722;2023-04-07T04:48:50;99187.34;;;8.26;47.34
62548;BME280;48602;45.192;5.722;2023-04-07T04:51:17;99183.00;;;8.25;47.18
62548;BME280;48602;45.192;5.722;2023-04-07T04:53:42;99174.22;;;8.26;47.44
62548;BME280;48602;45.192;5.722;2023-04-07T04:56:07;99174.94;;;8.33;47.17
62548;BME280;48602;45.192;5.722;2023-04-07T04:58:33;99171.38;;;8.35;46.85
62548;BME280;48602;45.192;5.722;2023-04-07T05:00:59;99175.72;;;8.36;46.81
62548;BME280;48602;45.192;5.722;2023-04-07T05:03:26;99167.75;;;8.38;46.81
62548;BME280;48602;45.192;5.722;2023-04-07T05:05:52;99171.25;;;8.38;46.44
62548;BME280;48602;45.192;5.722;2023-04-07T05:08:17;99173.00;;;8.38;47.29
62548;BME280;48602;45.192;5.722;2023-04-07T05:10:43;99171.41;;;8.34;47.19
62548;BME280;48602;45.192;5.722;2023-04-07T05:13:08;99167.16;;;8.28;48.12
62548;BME280;48602;45.192;5.722;2023-04-07T05:15:34;99169.94;;;8.22;48.16
62548;BME280;48602;45.192;5.722;2023-04-07T05:17:59;99179.56;;;8.23;48.04
62548;BME280;48602;45.192;5.722;2023-04-07T05:20:25;99181.28;;;8.24;47.09
62548;BME280;48602;45.192;5.722;2023-04-07T05:22:50;99184.72;;;8.26;46.82
62548;BME280;48602;45.192;5.722;2023-04-07T05:25:16;99176.84;;;8.26;47.89
62548;BME280;48602;45.192;5.722;2023-04-07T05:27:41;99171.53;;;8.28;47.88
62548;BME280;48602;45.192;5.722;2023-04-07T05:30:07;99174.13;;;8.29;47.22
62548;BME280;48602;45.192;5.722;2023-04-07T05:32:32;99173.22;;;8.30;47.35
62548;BME280;48602;45.192;5.722;2023-04-07T05:34:58;99168.84;;;8.31;47.49
62548;BME280;48602;45.192;5.722;2023-04-07T05:37:23;99172.25;;;8.34;47.46
62548;BME280;48602;45.192;5.722;2023-04-07T05:39:49;99167.72;;;8.39;47.68
62548;BME280;48602;45.192;5.722;2023-04-07T05:42:14;99171.94;;;8.45;47.47
62548;BME280;48602;45.192;5.722;2023-04-07T05:44:40;99174.47;;;8.48;47.33
62548;BME280;48602;45.192;5.722;2023-04-07T05:47:05;99178.00;;;8.47;47.67
62548;BME280;48602;45.192;5.722;2023-04-07T05:49:36;99181.53;;;8.46;47.75
62548;BME280;48602;45.192;5.722;2023-04-07T05:52:02;99173.81;;;8.40;47.37
62548;BME280;48602;45.192;5.722;2023-04-07T05:54:28;99175.63;;;8.38;47.24
62548;BME280;48602;45.192;5.722;2023-04-07T05:56:53;99181.66;;;8.42;47.32
62548;BME280;48602;45.192;5.722;2023-04-07T05:59:19;99167.66;;;8.41;46.69
62548;BME280;48602;45.192;5.722;2023-04-07T06:01:44;99172.78;;;8.46;46.57
62548;BME280;48602;45.192;5.722;2023-04-07T06:04:10;99185.75;;;8.52;46.57
62548;BME280;48602;45.192;5.722;2023-04-07T06:06:35;99182.94;;;8.56;46.57
62548;BME280;48602;45.192;5.722;2023-04-07T06:09:00;99187.25;;;8.59;46.84
62548;BME280;48602;45.192;5.722;2023-04-07T06:11:26;99190.69;;;8.61;46.65
62548;BME280;48602;45.192;5.722;2023-04-07T06:13:52;99195.09;;;8.60;46.74
62548;BME280;48602;45.192;5.722;2023-04-07T06:16:17;99189.72;;;8.65;46.55
62548;BME280;48602;45.192;5.722;2023-04-07T06:18:42;99188.59;;;8.72;46.82
62548;BME280;48602;45.192;5.722;2023-04-07T06:21:08;99184.81;;;8.81;46.85
62548;BME280;48602;45.192;5.722;2023-04-07T06:23:33;99185.44;;;8.89;46.24
62548;BME280;48602;45.192;5.722;2023-04-07T06:25:59;99187.78;;;8.98;46.37
62548;BME280;48602;45.192;5.722;2023-04-07T06:28:25;99187.41;;;9.08;46.18
62548;BME280;48602;45.192;5.722;2023-04-07T06:30:54;99185.34;;;9.18;46.34
62548;BME280;48602;45.192;5.722;2023-04-07T06:33:23;99184.22;;;9.25;46.17
62548;BME280;48602;45.192;5.722;2023-04-07T06:35:52;99179.66;;;9.30;46.10
62548;BME280;48602;45.192;5.722;2023-04-07T06:38:18;99192.50;;;9.39;45.96
62548;BME280;48602;45.192;5.722;2023-04-07T06:40:44;99197.41;;;9.50;46.30
62548;BME280;48602;45.192;5.722;2023-04-07T06:43:10;99191.88;;;9.58;46.37
62548;BME280;48602;45.192;5.722;2023-04-07T06:45:35;99189.06;;;9.62;46.63
62548;BME280;48602;45.192;5.722;2023-04-07T06:48:01;99189.72;;;9.69;46.60
62548;BME280;48602;45.192;5.722;2023-04-07T06:50:26;99193.91;;;9.74;46.35
62548;BME280;48602;45.192;5.722;2023-04-07T06:52:52;99196.38;;;9.79;46.60
62548;BME280;48602;45.192;5.722;2023-04-07T06:55:17;99220.03;;;9.80;46.12
62548;BME280;48602;45.192;5.722;2023-04-07T06:57:42;99218.41;;;9.76;46.04
62548;BME280;48602;45.192;5.722;2023-04-07T07:00:08;99221.00;;;9.78;46.63
62548;BME280;48602;45.192;5.722;2023-04-07T07:02:34;99224.69;;;9.72;47.41
62548;BME280;48602;45.192;5.722;2023-04-07T07:05:00;99227.31;;;9.72;48.02
62548;BME280;48602;45.192;5.722;2023-04-07T07:07:27;99238.19;;;9.63;48.41
62548;BME280;48602;45.192;5.722;2023-04-07T07:09:52;99238.31;;;9.59;48.54
62548;BME280;48602;45.192;5.722;2023-04-07T07:12:18;99236.59;;;9.58;48.96
62548;BME280;48602;45.192;5.722;2023-04-07T07:14:43;99244.44;;;9.59;48.99
62548;BME280;48602;45.192;5.722;2023-04-07T07:17:08;99232.97;;;9.62;49.06
62548;BME280;48602;45.192;5.722;2023-04-07T07:19:34;99237.28;;;9.64;49.44
62548;BME280;48602;45.192;5.722;2023-04-07T07:22:00;99244.09;;;9.70;49.01
62548;BME280;48602;45.192;5.722;2023-04-07T07:24:25;99238.84;;;9.70;48.66
62548;BME280;48602;45.192;5.722;2023-04-07T07:26:51;99245.53;;;9.78;48.65
62548;BME280;48602;45.192;5.722;2023-04-07T07:29:16;99243.47;;;9.88;48.57
62548;BME280;48602;45.192;5.722;2023-04-07T07:31:42;99237.84;;;9.97;48.14
62548;BME280;48602;45.192;5.722;2023-04-07T07:34:07;99245.38;;;10.08;48.02
62548;BME280;48602;45.192;5.722;2023-04-07T07:36:33;99243.25;;;10.19;48.01
62548;BME280;48602;45.192;5.722;2023-04-07T07:38:58;99252.47;;;10.31;48.17
62548;BME280;48602;45.192;5.722;2023-04-07T07:41:24;99247.84;;;10.37;48.79
62548;BME280;48602;45.192;5.722;2023-04-07T07:43:50;99253.63;;;10.47;50.13
62548;BME280;48602;45.192;5.722;2023-04-07T07:46:15;99258.66;;;10.53;51.04
62548;BME280;48602;45.192;5.722;2023-04-07T07:48:41;99261.06;;;10.59;51.07
62548;BME280;48602;45.192;5.722;2023-04-07T07:51:06;99261.81;;;10.63;50.97
62548;BME280;48602;45.192;5.722;2023-04-07T07:53:32;99264.56;;;10.60;51.59
62548;BME280;48602;45.192;5.722;2023-04-07T07:55:57;99275.34;;;10.54;51.91
62548;BME280;48602;45.192;5.722;2023-04-07T07:58:23;99293.91;;;10.51;52.72
62548;BME280;48602;45.192;5.722;2023-04-07T08:00:48;99287.94;;;10.45;52.20
62548;BME280;48602;45.192;5.722;2023-04-07T08:03:15;99301.47;;;10.36;52.38
62548;BME280;48602;45.192;5.722;2023-04-07T08:05:43;99308.78;;;10.28;53.59
62548;BME280;48602;45.192;5.722;2023-04-07T08:08:09;99311.50;;;10.25;54.57
62548;BME280;48602;45.192;5.722;2023-04-07T08:10:34;99324.94;;;10.19;54.44
62548;BME280;48602;45.192;5.722;2023-04-07T08:13:00;99317.25;;;10.11;55.00
62548;BME280;48602;45.192;5.722;2023-04-07T08:15:25;99317.28;;;10.10;54.94
62548;BME280;48602;45.192;5.722;2023-04-07T08:17:51;99318.22;;;10.09;55.54
62548;BME280;48602;45.192;5.722;2023-04-07T08:20:16;99323.31;;;10.13;54.01
62548;BME280;48602;45.192;5.722;2023-04-07T08:22:42;99325.00;;;10.16;53.24
62548;BME280;48602;45.192;5.722;2023-04-07T08:25:07;99329.50;;;10.12;53.20
62548;BME280;48602;45.192;5.722;2023-04-07T08:27:32;99336.00;;;10.02;54.85
62548;BME280;48602;45.192;5.722;2023-04-07T08:30:03;99336.13;;;9.99;54.64
62548;BME280;48602;45.192;5.722;2023-04-07T08:32:48;99326.75;;;9.91;55.74
62548;BME280;48602;45.192;5.722;2023-04-07T08:35:13;99338.25;;;9.88;55.98
62548;BME280;48602;45.192;5.722;2023-04-07T08:37:40;99337.41;;;9.88;56.34
62548;BME280;48602;45.192;5.722;2023-04-07T08:40:06;99346.16;;;9.88;56.87
62548;BME280;48602;45.192;5.722;2023-04-07T08:42:33;99346.22;;;9.87;56.98
62548;BME280;48602;45.192;5.722;2023-04-07T08:45:04;99344.44;;;9.87;55.59
62548;BME280;48602;45.192;5.722;2023-04-07T08:47:31;99353.06;;;9.91;55.67
62548;BME280;48602;45.192;5.722;2023-04-07T08:50:03;99359.06;;;9.96;56.03
62548;BME280;48602;45.192;5.722;2023-04-07T08:52:40;99358.09;;;9.98;57.02
62548;BME280;48602;45.192;5.722;2023-04-07T08:55:11;99357.09;;;10.02;56.98
62548;BME280;48602;45.192;5.722;2023-04-07T08:57:37;99356.91;;;10.07;57.37
62548;BME280;48602;45.192;5.722;2023-04-07T09:00:07;99360.25;;;10.12;57.71
62548;BME280;48602;45.192;5.722;2023-04-07T09:02:36;99362.78;;;10.15;57.92
62548;BME280;48602;45.192;5.722;2023-04-07T09:05:03;99368.84;;;10.19;58.26
62548;BME280;48602;45.192;5.722;2023-04-07T09:07:34;99373.88;;;10.25;58.01
62548;BME280;48602;45.192;5.722;2023-04-07T09:10:00;99376.41;;;10.28;57.61
62548;BME280;48602;45.192;5.722;2023-04-07T09:12:29;99376.38;;;10.29;57.98
62548;BME280;48602;45.192;5.722;2023-04-07T09:14:58;99382.50;;;10.30;57.37
62548;BME280;48602;45.192;5.722;2023-04-07T09:17:27;99378.03;;;10.32;57.21
62548;BME280;48602;45.192;5.722;2023-04-07T09:19:57;99384.94;;;10.36;56.87
62548;BME280;48602;45.192;5.722;2023-04-07T09:22:41;99388.38;;;10.38;56.47
62548;BME280;48602;45.192;5.722;2023-04-07T09:28:02;99382.81;;;10.45;56.69
62548;BME280;48602;45.192;5.722;2023-04-07T09:30:30;99388.00;;;10.48;57.46
62548;BME280;48602;45.192;5.722;2023-04-07T09:32:56;99384.34;;;10.53;56.83
62548;BME280;48602;45.192;5.722;2023-04-07T09:35:22;99392.00;;;10.59;56.90
62548;BME280;48602;45.192;5.722;2023-04-07T09:38:06;99384.91;;;10.61;57.74
62548;BME280;48602;45.192;5.722;2023-04-07T09:40:32;99387.59;;;10.59;57.99
62548;BME280;48602;45.192;5.722;2023-04-07T09:42:58;99390.19;;;10.61;58.31
62548;BME280;48602;45.192;5.722;2023-04-07T09:45:25;99392.78;;;10.62;58.61
62548;BME280;48602;45.192;5.722;2023-04-07T09:47:52;99389.88;;;10.70;58.59
62548;BME280;48602;45.192;5.722;2023-04-07T09:50:38;99385.16;;;10.78;58.74
62548;BME280;48602;45.192;5.722;2023-04-07T09:53:05;99383.97;;;10.87;59.17
62548;BME280;48602;45.192;5.722;2023-04-07T09:55:31;99380.06;;;10.97;58.93
62548;BME280;48602;45.192;5.722;2023-04-07T09:57:58;99384.22;;;11.04;59.77
62548;BME280;48602;45.192;5.722;2023-04-07T10:00:24;99375.88;;;11.14;59.39
62548;BME280;48602;45.192;5.722;2023-04-07T10:02:51;99375.34;;;11.28;59.12
62548;BME280;48602;45.192;5.722;2023-04-07T10:05:17;99378.50;;;11.38;58.90
62548;BME280;48602;45.192;5.722;2023-04-07T10:07:45;99372.59;;;11.53;59.08
62548;BME280;48602;45.192;5.722;2023-04-07T10:10:12;99375.59;;;11.66;59.05
62548;BME280;48602;45.192;5.722;2023-04-07T10:12:37;99382.28;;;11.74;58.65
62548;BME280;48602;45.192;5.722;2023-04-07T10:15:03;99372.50;;;11.78;58.82
62548;BME280;48602;45.192;5.722;2023-04-07T10:17:34;99370.47;;;11.84;58.51
62548;BME280;48602;45.192;5.722;2023-04-07T10:20:00;99370.06;;;11.94;58.15
62548;BME280;48602;45.192;5.722;2023-04-07T10:22:27;99362.63;;;12.03;58.03
62548;BME280;48602;45.192;5.722;2023-04-07T10:27:33;99361.94;;;12.20;57.24
62548;BME280;48602;45.192;5.722;2023-04-07T10:30:00;99363.66;;;12.21;56.87
62548;BME280;48602;45.192;5.722;2023-04-07T10:32:28;99365.22;;;12.25;57.50
62548;BME280;48602;45.192;5.722;2023-04-07T10:34:54;99360.47;;;12.33;57.10
62548;BME280;48602;45.192;5.722;2023-04-07T10:37:21;99354.75;;;12.42;56.92
62548;BME280;48602;45.192;5.722;2023-04-07T10:39:47;99348.03;;;12.55;57.08
62548;BME280;48602;45.192;5.722;2023-04-07T10:45:05;99341.69;;;12.78;56.80
62548;BME280;48602;45.192;5.722;2023-04-07T10:47:31;99335.19;;;12.85;56.13
62548;BME280;48602;45.192;5.722;2023-04-07T10:50:16;99333.34;;;12.87;55.87
62548;BME280;48602;45.192;5.722;2023-04-07T10:52:43;99320.19;;;12.86;55.86
62548;BME280;48602;45.192;5.722;2023-04-07T10:55:28;99325.53;;;12.84;55.58
62548;BME280;48602;45.192;5.722;2023-04-07T10:58:29;99330.25;;;12.78;55.58
62548;BME280;48602;45.192;5.722;2023-04-07T11:03:38;99325.81;;;12.78;56.16
62548;BME280;48602;45.192;5.722;2023-04-07T11:08:41;99305.56;;;12.77;55.81
62548;BME280;48602;45.192;5.722;2023-04-07T11:11:08;99305.50;;;12.79;56.26
62548;BME280;48602;45.192;5.722;2023-04-07T11:16:18;99286.63;;;12.86;55.94
62548;BME280;48602;45.192;5.722;2023-04-07T11:18:57;99289.22;;;12.88;55.38
62548;BME280;48602;45.192;5.722;2023-04-07T11:21:23;99293.34;;;12.93;55.47
62548;BME280;48602;45.192;5.722;2023-04-07T11:23:48;99282.56;;;12.98;54.55
62548;BME280;48602;45.192;5.722;2023-04-07T11:26:14;99279.84;;;13.00;54.27
62548;BME280;48602;45.192;5.722;2023-04-07T11:28:48;99277.97;;;13.02;54.27
62548;BME280;48602;45.192;5.722;2023-04-07T11:31:27;99269.81;;;13.06;54.85
62548;BME280;48602;45.192;5.722;2023-04-07T11:33:53;99266.94;;;13.11;54.58
62548;BME280;48602;45.192;5.722;2023-04-07T11:36:29;99252.66;;;13.15;53.84
62548;BME280;48602;45.192;5.722;2023-04-07T11:38:56;99249.66;;;13.22;53.33
62548;BME280;48602;45.192;5.722;2023-04-07T11:41:22;99244.19;;;13.25;53.33
62548;BME280;48602;45.192;5.722;2023-04-07T11:44:02;99243.91;;;13.32;53.32
62548;BME280;48602;45.192;5.722;2023-04-07T11:46:28;99236.28;;;13.43;53.46
62548;BME280;48602;45.192;5.722;2023-04-07T11:48:53;99228.75;;;13.52;53.18
62548;BME280;48602;45.192;5.722;2023-04-07T11:51:20;99233.56;;;13.61;53.08
62548;BME280;48602;45.192;5.722;2023-04-07T11:53:53;99222.25;;;13.75;52.65
62548;BME280;48602;45.192;5.722;2023-04-07T11:56:19;99224.97;;;13.91;52.30
62548;BME280;48602;45.192;5.722;2023-04-07T11:58:48;99217.09;;;14.07;52.40
62548;BME280;48602;45.192;5.722;2023-04-07T12:01:13;99210.91;;;14.23;52.42
62548;BME280;48602;45.192;5.722;2023-04-07T12:03:54;99207.56;;;14.53;51.55
62548;BME280;48602;45.192;5.722;2023-04-07T12:06:32;99210.91;;;14.72;50.48
62548;BME280;48602;45.192;5.722;2023-04-07T12:09:02;99212.63;;;14.89;50.34
62548;BME280;48602;45.192;5.722;2023-04-07T12:11:28;99209.53;;;14.96;49.98
62548;BME280;48602;45.192;5.722;2023-04-07T12:13:54;99206.63;;;15.01;50.15
62548;BME280;48602;45.192;5.722;2023-04-07T12:16:20;99206.44;;;15.04;49.42
62548;BME280;48602;45.192;5.722;2023-04-07T12:18:46;99196.22;;;15.12;48.80
62548;BME280;48602;45.192;5.722;2023-04-07T12:21:11;99196.56;;;15.22;47.92
62548;BME280;48602;45.192;5.722;2023-04-07T12:23:37;99197.34;;;15.24;47.96
62548;BME280;48602;45.192;5.722;2023-04-07T12:26:02;99201.03;;;15.21;47.43
62548;BME280;48602;45.192;5.722;2023-04-07T12:28:27;99198.19;;;15.09;47.42
62548;BME280;48602;45.192;5.722;2023-04-07T12:30:54;99193.59;;;14.96;47.45
62548;BME280;48602;45.192;5.722;2023-04-07T12:33:19;99191.63;;;14.84;47.18
62548;BME280;48602;45.192;5.722;2023-04-07T12:35:45;99188.97;;;14.69;47.50
62548;BME280;48602;45.192;5.722;2023-04-07T12:38:11;99181.09;;;14.51;47.47
62548;BME280;48602;45.192;5.722;2023-04-07T12:40:36;99180.03;;;14.38;46.82
62548;BME280;48602;45.192;5.722;2023-04-07T12:43:03;99174.09;;;14.17;46.71
62548;BME280;48602;45.192;5.722;2023-04-07T12:45:28;99169.47;;;14.05;47.20
62548;BME280;48602;45.192;5.722;2023-04-07T12:47:55;99165.41;;;13.98;46.79
62548;BME280;48602;45.192;5.722;2023-04-07T12:50:21;99162.13;;;13.93;47.17
62548;BME280;48602;45.192;5.722;2023-04-07T12:52:47;99168.56;;;13.89;47.23
62548;BME280;48602;45.192;5.722;2023-04-07T12:55:12;99161.34;;;13.91;46.84
62548;BME280;48602;45.192;5.722;2023-04-07T12:57:38;99154.97;;;13.95;47.12
62548;BME280;48602;45.192;5.722;2023-04-07T13:00:04;99152.00;;;14.01;46.75
62548;BME280;48602;45.192;5.722;2023-04-07T13:02:30;99130.66;;;14.20;47.14
62548;BME280;48602;45.192;5.722;2023-04-07T13:04:55;99127.16;;;14.35;45.41
62548;BME280;48602;45.192;5.722;2023-04-07T13:07:21;99124.78;;;14.46;45.28
62548;BME280;48602;45.192;5.722;2023-04-07T13:09:46;99116.97;;;14.59;44.81
62548;BME280;48602;45.192;5.722;2023-04-07T13:12:12;99126.38;;;14.80;45.14
62548;BME280;48602;45.192;5.722;2023-04-07T13:14:38;99116.44;;;14.99;44.33
62548;BME280;48602;45.192;5.722;2023-04-07T13:17:05;99130.16;;;15.22;42.88
62548;BME280;48602;45.192;5.722;2023-04-07T13:19:31;99106.56;;;15.31;41.44
62548;BME280;48602;45.192;5.722;2023-04-07T13:21:56;99113.28;;;15.23;41.32
62548;BME280;48602;45.192;5.722;2023-04-07T13:24:22;99155.63;;;15.10;41.09